sensor_id;sensor_type;location;lat;lon;timestamp;P1;durP1;ratioP1;P2;durP2;ratioP2
40609;SDS011;26316;55.976;37.140;2023-06-22T00:02:17;34.03;;;15.00;;
40609;SDS011;26316;55.976;37.140;2023-06-22T00:04:43;32.78;;;15.15;;
40609;SDS011;26316;55.976;37.140;2023-06-22T00:07:09;32.22;;;15.43;;
40609;SDS011;26316;55.976;37.140;2023-06-22T00:09:35;26.40;;;14.95;;
40609;SDS011;26316;55.976;37.140;2023-06-22T00:12:01;23.63;;;14.95;;
40609;SDS011;26316;55.976;37.140;2023-06-22T00:14:27;33.90;;;15.10;;
40609;SDS011;26316;55.976;37.140;2023-06-22T00:16:53;28.85;;;14.63;;
40609;SDS011;26316;55.976;37.140;2023-06-22T00:19:21;23.45;;;13.32;;
40609;SDS011;26316;55.976;37.140;2023-06-22T00:21:47;25.50;;;14.30;;
40609;SDS011;26316;55.976;37.140;2023-06-22T00:24:21;24.17;;;12.27;;
40609;SDS011;26316;55.976;37.140;2023-06-22T00:26:48;24.08;;;13.85;;
40609;SDS011;26316;55.976;37.140;2023-06-22T00:29:15;32.03;;;13.15;;
40609;SDS011;26316;55.976;37.140;2023-06-22T00:31:42;19.30;;;13.10;;
40609;SDS011;26316;55.976;37.140;2023-06-22T00:34:08;17.67;;;11.40;;
40609;SDS011;26316;55.976;37.140;2023-06-22T00:36:35;22.00;;;12.13;;
40609;SDS011;26316;55.976;37.140;2023-06-22T00:39:03;23.48;;;13.02;;
40609;SDS011;26316;55.976;37.140;2023-06-22T00:41:30;20.40;;;12.10;;
40609;SDS011;26316;55.976;37.140;2023-06-22T00:43:57;26.20;;;13.23;;
40609;SDS011;26316;55.976;37.140;2023-06-22T00:46:23;21.10;;;12.18;;
40609;SDS011;26316;55.976;37.140;2023-06-22T00:48:50;21.05;;;11.05;;
40609;SDS011;26316;55.976;37.140;2023-06-22T00:51:17;16.40;;;10.68;;
40609;SDS011;26316;55.976;37.140;2023-06-22T00:53:44;14.75;;;9.20;;
40609;SDS011;26316;55.976;37.140;2023-06-22T00:56:10;15.95;;;10.18;;
40609;SDS011;26316;55.976;37.140;2023-06-22T00:58:38;17.08;;;8.80;;
40609;SDS011;26316;55.976;37.140;2023-06-22T01:01:07;13.87;;;8.50;;
40609;SDS011;26316;55.976;37.140;2023-06-22T01:03:33;14.68;;;10.13;;
40609;SDS011;26316;55.976;37.140;2023-06-22T01:06:06;17.97;;;9.77;;
40609;SDS011;26316;55.976;37.140;2023-06-22T01:08:39;13.32;;;8.20;;
40609;SDS011;26316;55.976;37.140;2023-06-22T01:11:24;13.70;;;9.00;;
40609;SDS011;26316;55.976;37.140;2023-06-22T01:16:30;15.30;;;8.38;;
40609;SDS011;26316;55.976;37.140;2023-06-22T01:19:45;12.23;;;7.60;;
40609;SDS011;26316;55.976;37.140;2023-06-22T01:21:48;10.07;;;7.70;;
40609;SDS011;26316;55.976;37.140;2023-06-22T01:24:16;10.77;;;7.13;;
40609;SDS011;26316;55.976;37.140;2023-06-22T01:26:57;11.68;;;7.25;;
40609;SDS011;26316;55.976;37.140;2023-06-22T01:29:28;8.70;;;6.72;;
40609;SDS011;26316;55.976;37.140;2023-06-22T01:31:55;11.30;;;6.72;;
40609;SDS011;26316;55.976;37.140;2023-06-22T01:34:21;9.52;;;5.65;;
40609;SDS011;26316;55.976;37.140;2023-06-22T01:36:48;13.38;;;6.72;;
40609;SDS011;26316;55.976;37.140;2023-06-22T01:39:15;8.65;;;5.75;;
40609;SDS011;26316;55.976;37.140;2023-06-22T01:41:43;8.20;;;6.55;;
40609;SDS011;26316;55.976;37.140;2023-06-22T01:44:09;11.05;;;6.68;;
40609;SDS011;26316;55.976;37.140;2023-06-22T01:46:36;7.70;;;5.90;;
40609;SDS011;26316;55.976;37.140;2023-06-22T01:49:02;11.23;;;6.72;;
40609;SDS011;26316;55.976;37.140;2023-06-22T01:51:29;13.32;;;5.82;;
40609;SDS011;26316;55.976;37.140;2023-06-22T01:53:59;10.40;;;5.38;;
40609;SDS011;26316;55.976;37.140;2023-06-22T01:56:26;9.52;;;5.38;;
40609;SDS011;26316;55.976;37.140;2023-06-22T01:59:02;6.22;;;5.03;;
40609;SDS011;26316;55.976;37.140;2023-06-22T02:01:41;7.18;;;5.95;;
40609;SDS011;26316;55.976;37.140;2023-06-22T02:04:12;13.43;;;4.72;;
40609;SDS011;26316;55.976;37.140;2023-06-22T02:06:40;8.90;;;5.32;;
40609;SDS011;26316;55.976;37.140;2023-06-22T02:09:12;11.70;;;5.18;;
40609;SDS011;26316;55.976;37.140;2023-06-22T02:11:40;22.43;;;5.30;;
40609;SDS011;26316;55.976;37.140;2023-06-22T02:14:07;10.48;;;5.38;;
40609;SDS011;26316;55.976;37.140;2023-06-22T02:16:33;13.88;;;5.55;;
40609;SDS011;26316;55.976;37.140;2023-06-22T02:19:00;15.38;;;5.05;;
40609;SDS011;26316;55.976;37.140;2023-06-22T02:21:34;10.88;;;5.45;;
40609;SDS011;26316;55.976;37.140;2023-06-22T02:24:00;12.23;;;5.05;;
40609;SDS011;26316;55.976;37.140;2023-06-22T02:26:29;12.80;;;4.53;;
40609;SDS011;26316;55.976;37.140;2023-06-22T02:28:56;10.30;;;4.90;;
40609;SDS011;26316;55.976;37.140;2023-06-22T02:31:21;14.38;;;4.72;;
40609;SDS011;26316;55.976;37.140;2023-06-22T02:33:47;10.32;;;5.10;;
40609;SDS011;26316;55.976;37.140;2023-06-22T02:36:17;11.98;;;5.05;;
40609;SDS011;26316;55.976;37.140;2023-06-22T02:38:47;20.00;;;5.13;;
40609;SDS011;26316;55.976;37.140;2023-06-22T02:41:16;21.38;;;5.03;;
40609;SDS011;26316;55.976;37.140;2023-06-22T02:43:47;10.63;;;4.82;;
40609;SDS011;26316;55.976;37.140;2023-06-22T02:46:13;9.50;;;5.30;;
40609;SDS011;26316;55.976;37.140;2023-06-22T02:48:40;15.13;;;5.25;;
40609;SDS011;26316;55.976;37.140;2023-06-22T02:51:07;14.82;;;4.72;;
40609;SDS011;26316;55.976;37.140;2023-06-22T02:53:34;7.35;;;4.72;;
40609;SDS011;26316;55.976;37.140;2023-06-22T02:56:03;7.03;;;5.25;;
40609;SDS011;26316;55.976;37.140;2023-06-22T02:58:32;10.57;;;5.28;;
40609;SDS011;26316;55.976;37.140;2023-06-22T03:01:05;15.02;;;5.18;;
40609;SDS011;26316;55.976;37.140;2023-06-22T03:03:33;10.75;;;4.40;;
40609;SDS011;26316;55.976;37.140;2023-06-22T03:05:59;7.60;;;4.53;;
40609;SDS011;26316;55.976;37.140;2023-06-22T03:08:26;6.90;;;4.68;;
40609;SDS011;26316;55.976;37.140;2023-06-22T03:10:53;9.02;;;4.40;;
40609;SDS011;26316;55.976;37.140;2023-06-22T03:13:19;9.20;;;4.95;;
40609;SDS011;26316;55.976;37.140;2023-06-22T03:15:45;8.02;;;4.55;;
40609;SDS011;26316;55.976;37.140;2023-06-22T03:18:11;11.35;;;4.72;;
40609;SDS011;26316;55.976;37.140;2023-06-22T03:20:37;16.08;;;4.75;;
40609;SDS011;26316;55.976;37.140;2023-06-22T03:23:03;9.27;;;5.28;;
40609;SDS011;26316;55.976;37.140;2023-06-22T03:25:32;9.07;;;5.07;;
40609;SDS011;26316;55.976;37.140;2023-06-22T03:28:00;7.95;;;5.18;;
40609;SDS011;26316;55.976;37.140;2023-06-22T03:30:26;11.68;;;5.28;;
40609;SDS011;26316;55.976;37.140;2023-06-22T03:32:52;7.80;;;5.75;;
40609;SDS011;26316;55.976;37.140;2023-06-22T03:35:18;6.00;;;4.30;;
40609;SDS011;26316;55.976;37.140;2023-06-22T03:37:45;6.18;;;4.65;;
40609;SDS011;26316;55.976;37.140;2023-06-22T03:40:11;11.73;;;4.03;;
40609;SDS011;26316;55.976;37.140;2023-06-22T03:42:37;7.88;;;4.60;;
40609;SDS011;26316;55.976;37.140;2023-06-22T03:45:03;5.43;;;4.55;;
40609;SDS011;26316;55.976;37.140;2023-06-22T03:47:34;6.88;;;4.85;;
40609;SDS011;26316;55.976;37.140;2023-06-22T03:50:01;5.63;;;4.22;;
40609;SDS011;26316;55.976;37.140;2023-06-22T03:52:31;7.70;;;4.47;;
40609;SDS011;26316;55.976;37.140;2023-06-22T03:54:58;8.52;;;4.82;;
40609;SDS011;26316;55.976;37.140;2023-06-22T03:57:23;5.47;;;4.50;;
40609;SDS011;26316;55.976;37.140;2023-06-22T03:59:49;6.97;;;4.50;;
40609;SDS011;26316;55.976;37.140;2023-06-22T04:02:15;6.10;;;4.13;;
40609;SDS011;26316;55.976;37.140;2023-06-22T04:04:41;6.55;;;4.50;;
40609;SDS011;26316;55.976;37.140;2023-06-22T04:07:07;4.85;;;4.22;;
40609;SDS011;26316;55.976;37.140;2023-06-22T04:09:33;27.15;;;19.77;;
40609;SDS011;26316;55.976;37.140;2023-06-22T04:11:59;5.55;;;4.72;;
40609;SDS011;26316;55.976;37.140;2023-06-22T04:14:24;4.90;;;4.40;;
40609;SDS011;26316;55.976;37.140;2023-06-22T04:16:51;5.20;;;4.57;;
40609;SDS011;26316;55.976;37.140;2023-06-22T04:19:17;5.45;;;4.38;;
40609;SDS011;26316;55.976;37.140;2023-06-22T04:21:43;7.78;;;4.78;;
40609;SDS011;26316;55.976;37.140;2023-06-22T04:24:14;10.50;;;5.65;;
40609;SDS011;26316;55.976;37.140;2023-06-22T04:26:40;6.07;;;4.47;;
40609;SDS011;26316;55.976;37.140;2023-06-22T04:29:07;8.15;;;4.28;;
40609;SDS011;26316;55.976;37.140;2023-06-22T04:31:35;6.00;;;4.82;;
40609;SDS011;26316;55.976;37.140;2023-06-22T04:34:05;7.10;;;5.40;;
40609;SDS011;26316;55.976;37.140;2023-06-22T04:36:33;6.60;;;4.72;;
40609;SDS011;26316;55.976;37.140;2023-06-22T04:39:06;8.02;;;4.50;;
40609;SDS011;26316;55.976;37.140;2023-06-22T04:41:35;5.20;;;4.43;;
40609;SDS011;26316;55.976;37.140;2023-06-22T04:44:08;5.38;;;4.22;;
40609;SDS011;26316;55.976;37.140;2023-06-22T04:49:06;4.95;;;4.45;;
40609;SDS011;26316;55.976;37.140;2023-06-22T04:51:37;8.98;;;4.20;;
40609;SDS011;26316;55.976;37.140;2023-06-22T04:54:07;4.93;;;3.90;;
40609;SDS011;26316;55.976;37.140;2023-06-22T04:56:33;7.78;;;4.05;;
40609;SDS011;26316;55.976;37.140;2023-06-22T04:58:59;5.68;;;4.00;;
40609;SDS011;26316;55.976;37.140;2023-06-22T05:01:31;6.47;;;3.88;;
40609;SDS011;26316;55.976;37.140;2023-06-22T05:03:57;6.03;;;5.40;;
40609;SDS011;26316;55.976;37.140;2023-06-22T05:06:23;8.30;;;4.53;;
40609;SDS011;26316;55.976;37.140;2023-06-22T05:08:53;7.05;;;4.07;;
40609;SDS011;26316;55.976;37.140;2023-06-22T05:11:24;7.60;;;3.53;;
40609;SDS011;26316;55.976;37.140;2023-06-22T05:13:50;5.75;;;3.97;;
40609;SDS011;26316;55.976;37.140;2023-06-22T05:16:16;5.63;;;4.20;;
40609;SDS011;26316;55.976;37.140;2023-06-22T05:18:42;5.68;;;4.10;;
40609;SDS011;26316;55.976;37.140;2023-06-22T05:21:08;7.07;;;4.47;;
40609;SDS011;26316;55.976;37.140;2023-06-22T05:23:34;4.25;;;3.85;;
40609;SDS011;26316;55.976;37.140;2023-06-22T05:26:00;4.80;;;3.70;;
40609;SDS011;26316;55.976;37.140;2023-06-22T05:28:26;4.68;;;4.10;;
40609;SDS011;26316;55.976;37.140;2023-06-22T05:30:52;6.13;;;4.13;;
40609;SDS011;26316;55.976;37.140;2023-06-22T05:33:18;5.43;;;4.05;;
40609;SDS011;26316;55.976;37.140;2023-06-22T05:35:44;4.95;;;3.67;;
40609;SDS011;26316;55.976;37.140;2023-06-22T05:38:10;7.32;;;4.28;;
40609;SDS011;26316;55.976;37.140;2023-06-22T05:40:36;7.25;;;3.80;;
40609;SDS011;26316;55.976;37.140;2023-06-22T05:43:02;4.90;;;3.72;;
40609;SDS011;26316;55.976;37.140;2023-06-22T05:45:28;9.43;;;4.20;;
40609;SDS011;26316;55.976;37.140;2023-06-22T05:47:53;8.77;;;4.55;;
40609;SDS011;26316;55.976;37.140;2023-06-22T05:50:19;4.93;;;4.07;;
40609;SDS011;26316;55.976;37.140;2023-06-22T05:52:45;4.32;;;3.92;;
40609;SDS011;26316;55.976;37.140;2023-06-22T05:55:11;8.32;;;4.25;;
40609;SDS011;26316;55.976;37.140;2023-06-22T05:57:37;8.10;;;4.05;;
40609;SDS011;26316;55.976;37.140;2023-06-22T06:00:06;4.32;;;3.92;;
40609;SDS011;26316;55.976;37.140;2023-06-22T06:05:01;6.18;;;3.85;;
40609;SDS011;26316;55.976;37.140;2023-06-22T06:07:29;6.53;;;4.28;;
40609;SDS011;26316;55.976;37.140;2023-06-22T06:09:55;5.07;;;3.83;;
40609;SDS011;26316;55.976;37.140;2023-06-22T06:12:21;6.22;;;3.58;;
40609;SDS011;26316;55.976;37.140;2023-06-22T06:14:46;4.70;;;3.00;;
40609;SDS011;26316;55.976;37.140;2023-06-22T06:17:13;4.07;;;3.67;;
40609;SDS011;26316;55.976;37.140;2023-06-22T06:19:38;4.43;;;3.42;;
40609;SDS011;26316;55.976;37.140;2023-06-22T06:22:05;6.57;;;3.40;;
40609;SDS011;26316;55.976;37.140;2023-06-22T06:24:30;9.57;;;3.95;;
40609;SDS011;26316;55.976;37.140;2023-06-22T06:26:56;4.78;;;3.53;;
40609;SDS011;26316;55.976;37.140;2023-06-22T06:29:22;3.85;;;3.45;;
40609;SDS011;26316;55.976;37.140;2023-06-22T06:31:49;4.15;;;3.42;;
40609;SDS011;26316;55.976;37.140;2023-06-22T06:34:14;3.00;;;2.80;;
40609;SDS011;26316;55.976;37.140;2023-06-22T06:36:40;3.55;;;3.15;;
40609;SDS011;26316;55.976;37.140;2023-06-22T06:39:06;3.72;;;3.33;;
40609;SDS011;26316;55.976;37.140;2023-06-22T06:41:31;4.00;;;3.55;;
40609;SDS011;26316;55.976;37.140;2023-06-22T06:43:57;3.35;;;3.15;;
40609;SDS011;26316;55.976;37.140;2023-06-22T06:46:23;3.50;;;3.17;;
40609;SDS011;26316;55.976;37.140;2023-06-22T06:48:49;3.22;;;2.92;;
40609;SDS011;26316;55.976;37.140;2023-06-22T06:51:14;4.30;;;3.10;;
40609;SDS011;26316;55.976;37.140;2023-06-22T06:53:40;6.80;;;3.53;;
40609;SDS011;26316;55.976;37.140;2023-06-22T06:56:06;4.85;;;3.67;;
40609;SDS011;26316;55.976;37.140;2023-06-22T06:58:32;5.43;;;3.20;;
40609;SDS011;26316;55.976;37.140;2023-06-22T07:00:58;4.53;;;3.20;;
40609;SDS011;26316;55.976;37.140;2023-06-22T07:03:23;3.45;;;3.15;;
40609;SDS011;26316;55.976;37.140;2023-06-22T07:05:49;3.35;;;3.15;;
40609;SDS011;26316;55.976;37.140;2023-06-22T07:08:15;4.28;;;3.20;;
40609;SDS011;26316;55.976;37.140;2023-06-22T07:10:41;4.85;;;3.42;;
40609;SDS011;26316;55.976;37.140;2023-06-22T07:13:06;3.70;;;3.28;;
40609;SDS011;26316;55.976;37.140;2023-06-22T07:15:32;7.05;;;3.40;;
40609;SDS011;26316;55.976;37.140;2023-06-22T07:17:58;5.82;;;3.47;;
40609;SDS011;26316;55.976;37.140;2023-06-22T07:20:24;5.45;;;3.53;;
40609;SDS011;26316;55.976;37.140;2023-06-22T07:22:49;3.42;;;2.90;;
40609;SDS011;26316;55.976;37.140;2023-06-22T07:25:16;2.97;;;2.78;;
40609;SDS011;26316;55.976;37.140;2023-06-22T07:27:46;3.83;;;3.10;;
40609;SDS011;26316;55.976;37.140;2023-06-22T07:30:26;3.60;;;3.30;;
40609;SDS011;26316;55.976;37.140;2023-06-22T07:32:52;4.70;;;3.63;;
40609;SDS011;26316;55.976;37.140;2023-06-22T07:35:18;7.13;;;3.30;;
40609;SDS011;26316;55.976;37.140;2023-06-22T07:37:44;4.60;;;3.65;;
40609;SDS011;26316;55.976;37.140;2023-06-22T07:40:10;4.03;;;3.40;;
40609;SDS011;26316;55.976;37.140;2023-06-22T07:42:36;5.05;;;3.92;;
40609;SDS011;26316;55.976;37.140;2023-06-22T07:45:02;5.90;;;3.60;;
40609;SDS011;26316;55.976;37.140;2023-06-22T07:47:32;4.72;;;3.60;;
40609;SDS011;26316;55.976;37.140;2023-06-22T07:50:01;8.45;;;4.07;;
40609;SDS011;26316;55.976;37.140;2023-06-22T07:52:31;4.90;;;3.17;;
40609;SDS011;26316;55.976;37.140;2023-06-22T07:54:57;5.10;;;3.30;;
40609;SDS011;26316;55.976;37.140;2023-06-22T07:57:23;5.43;;;2.92;;
40609;SDS011;26316;55.976;37.140;2023-06-22T07:59:58;4.95;;;3.40;;
40609;SDS011;26316;55.976;37.140;2023-06-22T08:02:25;3.60;;;3.28;;
40609;SDS011;26316;55.976;37.140;2023-06-22T08:04:51;5.50;;;3.45;;
40609;SDS011;26316;55.976;37.140;2023-06-22T08:07:17;3.55;;;3.25;;
40609;SDS011;26316;55.976;37.140;2023-06-22T08:09:46;3.67;;;3.38;;
40609;SDS011;26316;55.976;37.140;2023-06-22T08:12:14;3.63;;;3.33;;
40609;SDS011;26316;55.976;37.140;2023-06-22T08:14:41;5.35;;;3.25;;
40609;SDS011;26316;55.976;37.140;2023-06-22T08:17:08;4.68;;;3.58;;
40609;SDS011;26316;55.976;37.140;2023-06-22T08:19:34;4.85;;;3.30;;
40609;SDS011;26316;55.976;37.140;2023-06-22T08:22:00;3.95;;;3.50;;
40609;SDS011;26316;55.976;37.140;2023-06-22T08:24:26;3.58;;;3.28;;
40609;SDS011;26316;55.976;37.140;2023-06-22T08:29:21;5.55;;;3.20;;
40609;SDS011;26316;55.976;37.140;2023-06-22T08:31:47;3.63;;;3.10;;
40609;SDS011;26316;55.976;37.140;2023-06-22T08:34:13;3.53;;;3.22;;
40609;SDS011;26316;55.976;37.140;2023-06-22T08:36:39;9.52;;;3.35;;
40609;SDS011;26316;55.976;37.140;2023-06-22T08:39:10;3.50;;;3.20;;
40609;SDS011;26316;55.976;37.140;2023-06-22T08:41:36;3.63;;;3.35;;
40609;SDS011;26316;55.976;37.140;2023-06-22T08:44:02;3.13;;;2.83;;
40609;SDS011;26316;55.976;37.140;2023-06-22T08:46:29;8.15;;;3.45;;
40609;SDS011;26316;55.976;37.140;2023-06-22T08:48:57;3.35;;;3.05;;
40609;SDS011;26316;55.976;37.140;2023-06-22T08:51:24;3.50;;;3.20;;
40609;SDS011;26316;55.976;37.140;2023-06-22T08:53:50;2.97;;;2.78;;
40609;SDS011;26316;55.976;37.140;2023-06-22T08:56:16;3.40;;;2.97;;
40609;SDS011;26316;55.976;37.140;2023-06-22T08:58:42;3.47;;;3.17;;
40609;SDS011;26316;55.976;37.140;2023-06-22T09:01:08;2.97;;;2.78;;
40609;SDS011;26316;55.976;37.140;2023-06-22T09:03:33;6.57;;;3.33;;
40609;SDS011;26316;55.976;37.140;2023-06-22T09:06:01;3.83;;;3.00;;
40609;SDS011;26316;55.976;37.140;2023-06-22T09:08:27;3.20;;;2.78;;
40609;SDS011;26316;55.976;37.140;2023-06-22T09:10:53;3.20;;;3.00;;
40609;SDS011;26316;55.976;37.140;2023-06-22T09:13:19;3.63;;;2.67;;
40609;SDS011;26316;55.976;37.140;2023-06-22T09:15:45;3.92;;;3.38;;
40609;SDS011;26316;55.976;37.140;2023-06-22T09:18:11;5.97;;;3.40;;
40609;SDS011;26316;55.976;37.140;2023-06-22T09:20:37;3.47;;;3.17;;
40609;SDS011;26316;55.976;37.140;2023-06-22T09:23:03;8.25;;;3.50;;
40609;SDS011;26316;55.976;37.140;2023-06-22T09:25:28;5.22;;;3.67;;
40609;SDS011;26316;55.976;37.140;2023-06-22T09:27:54;3.97;;;3.67;;
40609;SDS011;26316;55.976;37.140;2023-06-22T09:30:21;4.88;;;3.10;;
40609;SDS011;26316;55.976;37.140;2023-06-22T09:32:47;2.95;;;2.75;;
40609;SDS011;26316;55.976;37.140;2023-06-22T09:35:13;3.65;;;3.35;;
40609;SDS011;26316;55.976;37.140;2023-06-22T09:37:39;3.85;;;3.22;;
40609;SDS011;26316;55.976;37.140;2023-06-22T09:40:06;3.10;;;2.90;;
40609;SDS011;26316;55.976;37.140;2023-06-22T09:42:36;4.90;;;3.15;;
40609;SDS011;26316;55.976;37.140;2023-06-22T09:45:02;3.05;;;2.80;;
40609;SDS011;26316;55.976;37.140;2023-06-22T09:47:32;4.13;;;3.08;;
40609;SDS011;26316;55.976;37.140;2023-06-22T09:49:57;3.92;;;3.20;;
40609;SDS011;26316;55.976;37.140;2023-06-22T09:52:25;3.40;;;3.03;;
40609;SDS011;26316;55.976;37.140;2023-06-22T09:54:52;3.20;;;3.00;;
40609;SDS011;26316;55.976;37.140;2023-06-22T09:57:18;3.55;;;3.22;;
40609;SDS011;26316;55.976;37.140;2023-06-22T09:59:43;3.47;;;3.22;;
40609;SDS011;26316;55.976;37.140;2023-06-22T10:02:09;3.33;;;2.75;;
40609;SDS011;26316;55.976;37.140;2023-06-22T10:04:35;3.53;;;2.70;;
40609;SDS011;26316;55.976;37.140;2023-06-22T10:07:02;3.47;;;3.17;;
40609;SDS011;26316;55.976;37.140;2023-06-22T10:09:28;3.28;;;2.97;;
40609;SDS011;26316;55.976;37.140;2023-06-22T10:11:55;3.80;;;2.70;;
40609;SDS011;26316;55.976;37.140;2023-06-22T10:14:20;3.15;;;2.95;;
40609;SDS011;26316;55.976;37.140;2023-06-22T10:16:47;3.08;;;2.85;;
40609;SDS011;26316;55.976;37.140;2023-06-22T10:19:14;3.17;;;2.88;;
40609;SDS011;26316;55.976;37.140;2023-06-22T10:21:40;2.83;;;2.63;;
40609;SDS011;26316;55.976;37.140;2023-06-22T10:24:06;4.47;;;3.22;;
40609;SDS011;26316;55.976;37.140;2023-06-22T10:26:32;3.63;;;3.28;;
40609;SDS011;26316;55.976;37.140;2023-06-22T10:28:59;3.50;;;3.20;;
40609;SDS011;26316;55.976;37.140;2023-06-22T10:31:25;5.13;;;3.65;;
40609;SDS011;26316;55.976;37.140;2023-06-22T10:33:53;3.00;;;2.80;;
40609;SDS011;26316;55.976;37.140;2023-06-22T10:36:20;3.45;;;3.15;;
40609;SDS011;26316;55.976;37.140;2023-06-22T10:38:46;7.05;;;3.22;;
40609;SDS011;26316;55.976;37.140;2023-06-22T10:41:13;5.20;;;2.90;;
40609;SDS011;26316;55.976;37.140;2023-06-22T10:43:39;4.15;;;3.33;;
40609;SDS011;26316;55.976;37.140;2023-06-22T10:46:06;5.80;;;2.83;;
40609;SDS011;26316;55.976;37.140;2023-06-22T10:48:32;3.55;;;2.80;;
40609;SDS011;26316;55.976;37.140;2023-06-22T10:50:58;4.10;;;3.08;;
40609;SDS011;26316;55.976;37.140;2023-06-22T10:53:24;3.85;;;3.03;;
40609;SDS011;26316;55.976;37.140;2023-06-22T10:55:50;3.20;;;3.00;;
40609;SDS011;26316;55.976;37.140;2023-06-22T10:58:18;6.55;;;3.25;;
40609;SDS011;26316;55.976;37.140;2023-06-22T11:00:45;2.88;;;2.67;;
40609;SDS011;26316;55.976;37.140;2023-06-22T11:03:11;6.70;;;2.88;;
40609;SDS011;26316;55.976;37.140;2023-06-22T11:05:37;4.18;;;3.35;;
40609;SDS011;26316;55.976;37.140;2023-06-22T11:08:03;4.07;;;3.40;;
40609;SDS011;26316;55.976;37.140;2023-06-22T11:10:30;3.67;;;3.17;;
40609;SDS011;26316;55.976;37.140;2023-06-22T11:12:56;3.20;;;3.00;;
40609;SDS011;26316;55.976;37.140;2023-06-22T11:15:24;4.47;;;3.58;;
40609;SDS011;26316;55.976;37.140;2023-06-22T11:17:50;4.63;;;3.42;;
40609;SDS011;26316;55.976;37.140;2023-06-22T11:20:16;4.60;;;2.90;;
40609;SDS011;26316;55.976;37.140;2023-06-22T11:22:42;3.20;;;3.00;;
40609;SDS011;26316;55.976;37.140;2023-06-22T11:25:08;2.78;;;2.58;;
40609;SDS011;26316;55.976;37.140;2023-06-22T11:27:34;3.25;;;2.85;;
40609;SDS011;26316;55.976;37.140;2023-06-22T11:30:00;3.70;;;3.40;;
40609;SDS011;26316;55.976;37.140;2023-06-22T11:32:26;3.13;;;2.83;;
40609;SDS011;26316;55.976;37.140;2023-06-22T11:34:52;4.38;;;3.15;;
40609;SDS011;26316;55.976;37.140;2023-06-22T11:37:18;3.38;;;3.08;;
40609;SDS011;26316;55.976;37.140;2023-06-22T11:39:43;3.85;;;3.03;;
40609;SDS011;26316;55.976;37.140;2023-06-22T11:42:09;3.13;;;2.83;;
40609;SDS011;26316;55.976;37.140;2023-06-22T11:44:35;3.42;;;3.22;;
40609;SDS011;26316;55.976;37.140;2023-06-22T11:47:01;3.47;;;3.17;;
40609;SDS011;26316;55.976;37.140;2023-06-22T11:49:30;3.60;;;3.30;;
40609;SDS011;26316;55.976;37.140;2023-06-22T11:51:56;4.32;;;3.00;;
40609;SDS011;26316;55.976;37.140;2023-06-22T11:54:22;3.25;;;3.00;;
40609;SDS011;26316;55.976;37.140;2023-06-22T11:56:48;3.70;;;3.50;;
40609;SDS011;26316;55.976;37.140;2023-06-22T11:59:14;4.32;;;3.65;;
40609;SDS011;26316;55.976;37.140;2023-06-22T12:01:40;3.00;;;2.80;;
40609;SDS011;26316;55.976;37.140;2023-06-22T12:04:06;3.13;;;2.92;;
40609;SDS011;26316;55.976;37.140;2023-06-22T12:06:32;5.05;;;3.20;;
40609;SDS011;26316;55.976;37.140;2023-06-22T12:08:59;3.63;;;3.33;;
40609;SDS011;26316;55.976;37.140;2023-06-22T12:11:25;3.20;;;3.00;;
40609;SDS011;26316;55.976;37.140;2023-06-22T12:13:50;3.08;;;2.88;;
40609;SDS011;26316;55.976;37.140;2023-06-22T12:16:16;3.22;;;3.00;;
40609;SDS011;26316;55.976;37.140;2023-06-22T12:18:42;4.13;;;3.08;;
40609;SDS011;26316;55.976;37.140;2023-06-22T12:21:08;3.38;;;3.13;;
40609;SDS011;26316;55.976;37.140;2023-06-22T12:23:34;3.63;;;3.28;;
40609;SDS011;26316;55.976;37.140;2023-06-22T12:25:59;3.20;;;2.92;;
40609;SDS011;26316;55.976;37.140;2023-06-22T12:28:27;3.78;;;3.28;;
40609;SDS011;26316;55.976;37.140;2023-06-22T12:30:53;2.90;;;2.70;;
40609;SDS011;26316;55.976;37.140;2023-06-22T12:33:19;3.65;;;3.35;;
40609;SDS011;26316;55.976;37.140;2023-06-22T12:35:45;3.03;;;2.83;;
40609;SDS011;26316;55.976;37.140;2023-06-22T12:38:11;3.90;;;3.40;;
40609;SDS011;26316;55.976;37.140;2023-06-22T12:40:37;5.53;;;3.20;;
40609;SDS011;26316;55.976;37.140;2023-06-22T12:43:03;3.40;;;3.20;;
40609;SDS011;26316;55.976;37.140;2023-06-22T12:45:29;4.28;;;3.00;;
40609;SDS011;26316;55.976;37.140;2023-06-22T12:47:59;3.45;;;3.15;;
40609;SDS011;26316;55.976;37.140;2023-06-22T12:50:25;3.45;;;2.97;;
40609;SDS011;26316;55.976;37.140;2023-06-22T12:52:51;4.30;;;3.08;;
40609;SDS011;26316;55.976;37.140;2023-06-22T12:55:16;3.35;;;3.15;;
40609;SDS011;26316;55.976;37.140;2023-06-22T12:57:43;6.07;;;3.38;;
40609;SDS011;26316;55.976;37.140;2023-06-22T13:00:09;3.42;;;3.10;;
40609;SDS011;26316;55.976;37.140;2023-06-22T13:02:36;3.65;;;3.03;;
40609;SDS011;26316;55.976;37.140;2023-06-22T13:05:02;3.80;;;3.45;;
40609;SDS011;26316;55.976;37.140;2023-06-22T13:07:31;3.30;;;3.10;;
40609;SDS011;26316;55.976;37.140;2023-06-22T13:09:57;3.95;;;3.03;;
40609;SDS011;26316;55.976;37.140;2023-06-22T13:12:23;3.65;;;3.35;;
40609;SDS011;26316;55.976;37.140;2023-06-22T13:14:49;4.00;;;3.60;;
40609;SDS011;26316;55.976;37.140;2023-06-22T13:17:15;3.83;;;3.20;;
40609;SDS011;26316;55.976;37.140;2023-06-22T13:19:41;3.63;;;3.33;;
40609;SDS011;26316;55.976;37.140;2023-06-22T13:22:28;3.50;;;3.30;;
40609;SDS011;26316;55.976;37.140;2023-06-22T13:25:05;3.20;;;3.00;;
40609;SDS011;26316;55.976;37.140;2023-06-22T13:27:32;3.70;;;3.40;;
40609;SDS011;26316;55.976;37.140;2023-06-22T13:29:57;3.20;;;3.00;;
40609;SDS011;26316;55.976;37.140;2023-06-22T13:32:23;3.45;;;3.15;;
40609;SDS011;26316;55.976;37.140;2023-06-22T13:34:49;3.47;;;3.17;;
40609;SDS011;26316;55.976;37.140;2023-06-22T13:37:16;3.80;;;3.60;;
40609;SDS011;26316;55.976;37.140;2023-06-22T13:39:42;3.83;;;3.42;;
40609;SDS011;26316;55.976;37.140;2023-06-22T13:42:08;3.10;;;2.90;;
40609;SDS011;26316;55.976;37.140;2023-06-22T13:44:34;3.38;;;2.95;;
40609;SDS011;26316;55.976;37.140;2023-06-22T13:47:00;3.40;;;3.20;;
40609;SDS011;26316;55.976;37.140;2023-06-22T13:49:26;3.58;;;3.28;;
40609;SDS011;26316;55.976;37.140;2023-06-22T13:51:51;3.53;;;3.33;;
40609;SDS011;26316;55.976;37.140;2023-06-22T13:54:17;3.38;;;3.13;;
40609;SDS011;26316;55.976;37.140;2023-06-22T13:56:43;3.70;;;3.40;;
40609;SDS011;26316;55.976;37.140;2023-06-22T13:59:08;3.78;;;3.47;;
40609;SDS011;26316;55.976;37.140;2023-06-22T14:01:35;4.07;;;3.10;;
40609;SDS011;26316;55.976;37.140;2023-06-22T14:04:02;3.50;;;3.30;;
40609;SDS011;26316;55.976;37.140;2023-06-22T14:06:28;3.40;;;3.10;;
40609;SDS011;26316;55.976;37.140;2023-06-22T14:08:54;4.32;;;3.67;;
40609;SDS011;26316;55.976;37.140;2023-06-22T14:11:19;3.55;;;3.25;;
40609;SDS011;26316;55.976;37.140;2023-06-22T14:13:45;3.53;;;3.33;;
40609;SDS011;26316;55.976;37.140;2023-06-22T14:16:12;4.10;;;3.30;;
40609;SDS011;26316;55.976;37.140;2023-06-22T14:18:37;3.47;;;3.17;;
40609;SDS011;26316;55.976;37.140;2023-06-22T14:21:03;3.33;;;3.03;;
40609;SDS011;26316;55.976;37.140;2023-06-22T14:23:30;3.80;;;3.55;;
40609;SDS011;26316;55.976;37.140;2023-06-22T14:25:56;3.45;;;3.15;;
40609;SDS011;26316;55.976;37.140;2023-06-22T14:28:22;3.55;;;3.25;;
40609;SDS011;26316;55.976;37.140;2023-06-22T14:30:48;7.03;;;3.75;;
40609;SDS011;26316;55.976;37.140;2023-06-22T14:33:14;3.78;;;3.50;;
40609;SDS011;26316;55.976;37.140;2023-06-22T14:35:39;4.38;;;3.50;;
40609;SDS011;26316;55.976;37.140;2023-06-22T14:38:05;4.00;;;3.70;;
40609;SDS011;26316;55.976;37.140;2023-06-22T14:40:31;3.67;;;3.47;;